sensor_id;sensor_type;location;lat;lon;timestamp;pressure;altitude;pressure_sealevel;temperature;humidity
34241;BME280;20503;50.200;19.508;2022-12-07T00:02:13;101219.59;;;1.43;100.00
34241;BME280;20503;50.200;19.508;2022-12-07T00:07:24;101215.90;;;1.44;100.00
34241;BME280;20503;50.200;19.508;2022-12-07T00:12:35;101216.60;;;1.46;100.00
34241;BME280;20503;50.200;19.508;2022-12-07T00:17:46;101207.80;;;1.44;100.00
34241;BME280;20503;50.200;19.508;2022-12-07T00:22:57;101209.22;;;1.48;100.00
34241;BME280;20503;50.200;19.508;2022-12-07T00:28:07;101205.52;;;1.39;100.00
34241;BME280;20503;50.200;19.508;2022-12-07T00:33:18;101213.60;;;1.39;100.00
34241;BME280;20503;50.200;19.508;2022-12-07T00:38:31;101208.80;;;1.43;100.00
34241;BME280;20503;50.200;19.508;2022-12-07T00:43:42;101198.18;;;1.41;100.00
34241;BME280;20503;50.200;19.508;2022-12-07T00:48:52;101190.79;;;1.43;100.00
34241;BME280;20503;50.200;19.508;2022-12-07T00:54:01;101200.71;;;1.43;100.00
34241;BME280;20503;50.200;19.508;2022-12-07T00:59:13;101194.02;;;1.37;100.00
34241;BME280;20503;50.200;19.508;2022-12-07T01:04:23;101197.59;;;1.38;100.00
34241;BME280;20503;50.200;19.508;2022-12-07T01:09:34;101191.62;;;1.34;100.00
34241;BME280;20503;50.200;19.508;2022-12-07T01:14:45;101187.09;;;1.35;100.00
34241;BME280;20503;50.200;19.508;2022-12-07T01:19:55;101191.48;;;1.36;100.00
34241;BME280;20503;50.200;19.508;2022-12-07T01:25:08;101182.69;;;1.34;100.00
34241;BME280;20503;50.200;19.508;2022-12-07T01:30:17;101178.00;;;1.36;100.00
34241;BME280;20503;50.200;19.508;2022-12-07T01:35:27;101181.95;;;1.32;100.00
34241;BME280;20503;50.200;19.508;2022-12-07T01:40:38;101178.14;;;1.34;100.00
34241;BME280;20503;50.200;19.508;2022-12-07T01:45:49;101174.15;;;1.29;100.00
34241;BME280;20503;50.200;19.508;2022-12-07T01:51:04;101164.94;;;1.31;100.00
34241;BME280;20503;50.200;19.508;2022-12-07T01:56:15;101164.94;;;1.31;100.00
34241;BME280;20503;50.200;19.508;2022-12-07T02:01:22;101166.52;;;1.34;100.00
34241;BME280;20503;50.200;19.508;2022-12-07T02:06:35;101159.41;;;1.33;100.00
34241;BME280;20503;50.200;19.508;2022-12-07T02:11:43;101153.87;;;1.34;100.00
34241;BME280;20503;50.200;19.508;2022-12-07T02:32:43;101141.68;;;1.40;100.00
34241;BME280;20503;50.200;19.508;2022-12-07T02:48:16;101133.46;;;1.41;100.00
34241;BME280;20503;50.200;19.508;2022-12-07T03:03:58;101120.97;;;1.40;100.00
34241;BME280;20503;50.200;19.508;2022-12-07T03:14:20;101127.61;;;1.46;100.00
34241;BME280;20503;50.200;19.508;2022-12-07T03:19:24;101130.90;;;1.40;100.00
34241;BME280;20503;50.200;19.508;2022-12-07T03:24:31;101124.51;;;1.41;100.00
34241;BME280;20503;50.200;19.508;2022-12-07T03:29:38;101130.61;;;1.43;100.00
34241;BME280;20503;50.200;19.508;2022-12-07T03:34:48;101115.01;;;1.37;100.00
34241;BME280;20503;50.200;19.508;2022-12-07T03:45:06;101119.82;;;1.43;100.00
34241;BME280;20503;50.200;19.508;2022-12-07T03:55:32;101110.90;;;1.33;100.00
34241;BME280;20503;50.200;19.508;2022-12-07T04:00:36;101109.61;;;1.37;100.00
34241;BME280;20503;50.200;19.508;2022-12-07T04:05:43;101124.63;;;1.39;100.00
34241;BME280;20503;50.200;19.508;2022-12-07T04:10:51;101118.40;;;1.39;100.00
34241;BME280;20503;50.200;19.508;2022-12-07T04:16:01;101117.41;;;1.40;100.00
34241;BME280;20503;50.200;19.508;2022-12-07T04:21:12;101116.29;;;1.33;100.00
34241;BME280;20503;50.200;19.508;2022-12-07T04:26:23;101107.75;;;1.37;100.00
34241;BME280;20503;50.200;19.508;2022-12-07T04:31:35;101113.02;;;1.39;100.00
34241;BME280;20503;50.200;19.508;2022-12-07T04:36:45;101110.02;;;1.42;100.00
34241;BME280;20503;50.200;19.508;2022-12-07T04:41:56;101119.12;;;1.41;100.00
34241;BME280;20503;50.200;19.508;2022-12-07T04:47:07;101125.38;;;1.41;100.00
34241;BME280;20503;50.200;19.508;2022-12-07T04:52:17;101125.50;;;1.40;100.00
34241;BME280;20503;50.200;19.508;2022-12-07T04:57:28;101121.10;;;1.39;100.00
34241;BME280;20503;50.200;19.508;2022-12-07T05:02:40;101119.53;;;1.36;100.00
34241;BME280;20503;50.200;19.508;2022-12-07T05:07:50;101118.98;;;1.33;100.00
34241;BME280;20503;50.200;19.508;2022-12-07T05:13:00;101119.12;;;1.31;100.00
34241;BME280;20503;50.200;19.508;2022-12-07T05:18:12;101124.38;;;1.33;100.00
34241;BME280;20503;50.200;19.508;2022-12-07T05:23:22;101119.40;;;1.28;100.00
34241;BME280;20503;50.200;19.508;2022-12-07T05:28:35;101121.23;;;1.28;100.00
34241;BME280;20503;50.200;19.508;2022-12-07T05:33:43;101127.61;;;1.27;100.00
34241;BME280;20503;50.200;19.508;2022-12-07T05:38:54;101117.40;;;1.21;100.00
34241;BME280;20503;50.200;19.508;2022-12-07T05:44:05;101120.64;;;1.15;100.00
34241;BME280;20503;50.200;19.508;2022-12-07T05:49:15;101130.03;;;1.30;100.00
34241;BME280;20503;50.200;19.508;2022-12-07T05:54:26;101122.23;;;1.17;100.00
34241;BME280;20503;50.200;19.508;2022-12-07T05:59:37;101115.00;;;1.18;100.00
34241;BME280;20503;50.200;19.508;2022-12-07T06:04:48;101129.60;;;1.15;100.00
34241;BME280;20503;50.200;19.508;2022-12-07T06:09:59;101128.02;;;1.13;100.00
34241;BME280;20503;50.200;19.508;2022-12-07T06:15:10;101124.91;;;1.08;100.00
34241;BME280;20503;50.200;19.508;2022-12-07T06:20:21;101132.00;;;1.09;100.00
34241;BME280;20503;50.200;19.508;2022-12-07T06:25:33;101132.00;;;1.09;100.00
34241;BME280;20503;50.200;19.508;2022-12-07T06:30:43;101140.95;;;1.09;100.00
34241;BME280;20503;50.200;19.508;2022-12-07T06:35:52;101144.76;;;1.07;100.00
34241;BME280;20503;50.200;19.508;2022-12-07T06:41:03;101146.75;;;1.05;100.00
34241;BME280;20503;50.200;19.508;2022-12-07T06:46:15;101151.15;;;1.06;100.00
34241;BME280;20503;50.200;19.508;2022-12-07T06:51:27;101149.16;;;1.08;100.00
34241;BME280;20503;50.200;19.508;2022-12-07T06:56:37;101152.84;;;1.07;100.00
34241;BME280;20503;50.200;19.508;2022-12-07T07:01:47;101157.13;;;1.09;100.00
34241;BME280;20503;50.200;19.508;2022-12-07T07:06:58;101152.56;;;1.10;100.00
34241;BME280;20503;50.200;19.508;2022-12-07T07:12:08;101156.25;;;1.09;100.00
34241;BME280;20503;50.200;19.508;2022-12-07T07:17:18;101160.37;;;1.13;100.00
34241;BME280;20503;50.200;19.508;2022-12-07T07:22:29;101158.26;;;1.16;100.00
34241;BME280;20503;50.200;19.508;2022-12-07T07:27:40;101145.77;;;1.15;100.00
34241;BME280;20503;50.200;19.508;2022-12-07T07:32:51;101156.43;;;1.17;100.00
34241;BME280;20503;50.200;19.508;2022-12-07T07:38:02;101158.38;;;1.15;100.00
34241;BME280;20503;50.200;19.508;2022-12-07T07:43:12;101154.28;;;1.20;100.00
34241;BME280;20503;50.200;19.508;2022-12-07T07:48:23;101161.12;;;1.24;100.00
34241;BME280;20503;50.200;19.508;2022-12-07T07:53:36;101168.63;;;1.21;100.00
34241;BME280;20503;50.200;19.508;2022-12-07T07:58:47;101172.73;;;1.25;100.00
34241;BME280;20503;50.200;19.508;2022-12-07T08:03:56;101174.60;;;1.24;100.00
34241;BME280;20503;50.200;19.508;2022-12-07T08:09:07;101171.62;;;1.27;100.00
34241;BME280;20503;50.200;19.508;2022-12-07T08:14:17;101175.73;;;1.31;100.00
34241;BME280;20503;50.200;19.508;2022-12-07T08:19:28;101180.84;;;1.34;100.00
34241;BME280;20503;50.200;19.508;2022-12-07T08:24:40;101179.43;;;1.40;100.00
34241;BME280;20503;50.200;19.508;2022-12-07T08:29:49;101175.02;;;1.39;100.00
34241;BME280;20503;50.200;19.508;2022-12-07T08:35:00;101185.81;;;1.39;100.00
34241;BME280;20503;50.200;19.508;2022-12-07T08:40:13;101189.92;;;1.43;100.00
34241;BME280;20503;50.200;19.508;2022-12-07T08:45:22;101191.09;;;1.50;100.00
34241;BME280;20503;50.200;19.508;2022-12-07T08:50:33;101197.48;;;1.49;100.00
34241;BME280;20503;50.200;19.508;2022-12-07T08:55:45;101193.34;;;1.54;100.00
34241;BME280;20503;50.200;19.508;2022-12-07T09:00:54;101195.31;;;1.43;100.00
34241;BME280;20503;50.200;19.508;2022-12-07T09:06:05;101193.33;;;1.45;100.00
34241;BME280;20503;50.200;19.508;2022-12-07T09:11:16;101190.64;;;1.45;100.00
34241;BME280;20503;50.200;19.508;2022-12-07T09:16:27;101192.91;;;1.49;100.00
34241;BME280;20503;50.200;19.508;2022-12-07T09:21:38;101197.03;;;1.53;100.00
34241;BME280;20503;50.200;19.508;2022-12-07T09:26:50;101179.14;;;1.52;100.00
34241;BME280;20503;50.200;19.508;2022-12-07T09:31:59;101183.70;;;1.52;100.00
34241;BME280;20503;50.200;19.508;2022-12-07T09:37:09;101186.81;;;1.47;100.00
34241;BME280;20503;50.200;19.508;2022-12-07T09:42:28;101182.54;;;1.45;100.00
34241;BME280;20503;50.200;19.508;2022-12-07T09:47:32;101187.64;;;1.48;100.00
34241;BME280;20503;50.200;19.508;2022-12-07T09:52:44;101184.82;;;1.49;100.00
34241;BME280;20503;50.200;19.508;2022-12-07T09:57:53;101179.14;;;1.52;100.00
34241;BME280;20503;50.200;19.508;2022-12-07T10:03:03;101174.91;;;1.50;100.00
34241;BME280;20503;50.200;19.508;2022-12-07T10:08:15;101178.02;;;1.55;100.00
34241;BME280;20503;50.200;19.508;2022-12-07T10:13:35;101166.65;;;1.61;100.00
34241;BME280;20503;50.200;19.508;2022-12-07T10:18:39;101150.18;;;1.64;100.00
34241;BME280;20503;50.200;19.508;2022-12-07T10:39:26;101124.31;;;1.89;100.00
34241;BME280;20503;50.200;19.508;2022-12-07T10:44:32;101122.73;;;1.96;100.00
34241;BME280;20503;50.200;19.508;2022-12-07T11:00:18;101103.23;;;2.12;100.00
34241;BME280;20503;50.200;19.508;2022-12-07T11:26:27;101099.16;;;2.35;100.00
34241;BME280;20503;50.200;19.508;2022-12-07T11:36:49;101097.20;;;2.27;100.00
34241;BME280;20503;50.200;19.508;2022-12-07T11:41:56;101086.92;;;2.40;100.00
34241;BME280;20503;50.200;19.508;2022-12-07T11:47:54;101075.18;;;2.59;100.00
34241;BME280;20503;50.200;19.508;2022-12-07T11:57:39;101064.77;;;2.64;100.00
34241;BME280;20503;50.200;19.508;2022-12-07T12:23:50;101065.52;;;2.56;100.00
34241;BME280;20503;50.200;19.508;2022-12-07T12:29:01;101072.31;;;2.60;100.00
34241;BME280;20503;50.200;19.508;2022-12-07T12:39:19;101062.92;;;2.64;100.00
34241;BME280;20503;50.200;19.508;2022-12-07T12:49:38;101060.75;;;2.68;100.00
34241;BME280;20503;50.200;19.508;2022-12-07T12:59:59;101048.48;;;2.56;100.00
34241;BME280;20503;50.200;19.508;2022-12-07T13:15:40;101048.69;;;2.62;100.00
34241;BME280;20503;50.200;19.508;2022-12-07T13:20:47;101052.70;;;2.58;100.00
34241;BME280;20503;50.200;19.508;2022-12-07T13:25:56;101057.02;;;2.51;100.00
34241;BME280;20503;50.200;19.508;2022-12-07T13:31:09;101055.02;;;2.53;100.00
34241;BME280;20503;50.200;19.508;2022-12-07T13:40:42;101069.84;;;2.49;100.00
34241;BME280;20503;50.200;19.508;2022-12-07T13:46:00;101074.23;;;2.50;100.00
34241;BME280;20503;50.200;19.508;2022-12-07T13:51:12;101065.26;;;2.50;100.00
34241;BME280;20503;50.200;19.508;2022-12-07T13:56:15;101074.98;;;2.43;100.00
34241;BME280;20503;50.200;19.508;2022-12-07T14:01:25;101071.72;;;2.39;100.00
34241;BME280;20503;50.200;19.508;2022-12-07T14:06:36;101066.62;;;2.36;100.00
34241;BME280;20503;50.200;19.508;2022-12-07T14:11:49;101064.23;;;2.33;100.00
34241;BME280;20503;50.200;19.508;2022-12-07T14:27:31;101034.20;;;2.09;100.00
34241;BME280;20503;50.200;19.508;2022-12-07T14:32:36;101067.91;;;2.59;100.00
34241;BME280;20503;50.200;19.508;2022-12-07T14:37:43;101077.16;;;2.30;100.00
34241;BME280;20503;50.200;19.508;2022-12-07T14:43:04;101077.30;;;2.28;100.00
34241;BME280;20503;50.200;19.508;2022-12-07T14:48:02;101093.50;;;2.28;100.00
34241;BME280;20503;50.200;19.508;2022-12-07T14:53:16;101089.41;;;2.24;100.00
34241;BME280;20503;50.200;19.508;2022-12-07T14:58:24;101096.80;;;2.22;100.00
34241;BME280;20503;50.200;19.508;2022-12-07T15:03:38;101115.70;;;2.22;100.00
34241;BME280;20503;50.200;19.508;2022-12-07T15:08:45;101078.55;;;2.07;100.00
34241;BME280;20503;50.200;19.508;2022-12-07T15:13:57;101105.34;;;2.18;100.00
34241;BME280;20503;50.200;19.508;2022-12-07T15:19:14;101098.67;;;2.12;100.00
34241;BME280;20503;50.200;19.508;2022-12-07T15:24:18;101104.07;;;2.12;100.00
34241;BME280;20503;50.200;19.508;2022-12-07T15:29:29;101112.34;;;2.11;100.00
34241;BME280;20503;50.200;19.508;2022-12-07T15:34:39;101112.34;;;2.11;100.00
34241;BME280;20503;50.200;19.508;2022-12-07T15:39:52;101115.47;;;2.06;100.00
34241;BME280;20503;50.200;19.508;2022-12-07T15:45:01;101119.87;;;2.07;100.00
34241;BME280;20503;50.200;19.508;2022-12-07T15:50:14;101120.73;;;2.08;100.00
34241;BME280;20503;50.200;19.508;2022-12-07T15:55:22;101122.56;;;2.07;100.00
34241;BME280;20503;50.200;19.508;2022-12-07T16:00:33;101120.86;;;2.06;100.00
34241;BME280;20503;50.200;19.508;2022-12-07T16:05:50;101123.57;;;2.06;100.00
34241;BME280;20503;50.200;19.508;2022-12-07T16:10:55;101127.27;;;2.05;100.00
34241;BME280;20503;50.200;19.508;2022-12-07T16:16:08;101134.49;;;2.05;100.00
34241;BME280;20503;50.200;19.508;2022-12-07T16:21:18;101132.80;;;2.04;100.00
34241;BME280;20503;50.200;19.508;2022-12-07T16:26:27;101131.96;;;2.03;100.00
34241;BME280;20503;50.200;19.508;2022-12-07T16:31:38;101129.27;;;2.03;100.00
34241;BME280;20503;50.200;19.508;2022-12-07T16:36:48;101113.66;;;1.88;100.00
34241;BME280;20503;50.200;19.508;2022-12-07T16:42:00;101121.75;;;1.88;100.00
34241;BME280;20503;50.200;19.508;2022-12-07T16:47:10;101133.53;;;1.87;100.00
34241;BME280;20503;50.200;19.508;2022-12-07T16:52:21;101144.49;;;1.85;100.00
34241;BME280;20503;50.200;19.508;2022-12-07T16:57:32;101151.02;;;1.83;100.00
34241;BME280;20503;50.200;19.508;2022-12-07T17:02:44;101148.49;;;1.82;100.00
34241;BME280;20503;50.200;19.508;2022-12-07T17:07:54;101135.71;;;1.74;100.00
34241;BME280;20503;50.200;19.508;2022-12-07T17:13:04;101155.57;;;1.64;100.00
34241;BME280;20503;50.200;19.508;2022-12-07T17:18:18;101138.55;;;1.44;100.00
34241;BME280;20503;50.200;19.508;2022-12-07T17:23:25;101145.08;;;1.42;100.00
34241;BME280;20503;50.200;19.508;2022-12-07T17:28:36;101144.80;;;1.45;100.00
34241;BME280;20503;50.200;19.508;2022-12-07T17:33:47;101144.80;;;1.45;100.00
34241;BME280;20503;50.200;19.508;2022-12-07T17:38:58;101147.77;;;1.51;100.00
34241;BME280;20503;50.200;19.508;2022-12-07T17:44:15;101139.98;;;1.48;100.00
34241;BME280;20503;50.200;19.508;2022-12-07T17:49:20;101151.88;;;1.46;100.00
34241;BME280;20503;50.200;19.508;2022-12-07T17:54:30;101144.96;;;1.43;100.00
34241;BME280;20503;50.200;19.508;2022-12-07T17:59:41;101161.25;;;1.42;100.00
34241;BME280;20503;50.200;19.508;2022-12-07T18:04:52;101159.27;;;1.44;100.00
34241;BME280;20503;50.200;19.508;2022-12-07T18:10:03;101140.98;;;1.38;100.00
34241;BME280;20503;50.200;19.508;2022-12-07T18:15:13;101144.49;;;1.38;100.00
34241;BME280;20503;50.200;19.508;2022-12-07T18:20:25;101138.12;;;1.39;100.00
34241;BME280;20503;50.200;19.508;2022-12-07T18:25:35;101137.69;;;1.44;100.00
34241;BME280;20503;50.200;19.508;2022-12-07T18:30:47;101136.41;;;1.48;100.00
34241;BME280;20503;50.200;19.508;2022-12-07T18:35:58;101140.39;;;1.53;100.00
34241;BME280;20503;50.200;19.508;2022-12-07T18:41:09;101136.98;;;1.61;100.00
34241;BME280;20503;50.200;19.508;2022-12-07T18:46:19;101135.99;;;1.62;100.00
34241;BME280;20503;50.200;19.508;2022-12-07T18:51:29;101143.79;;;1.65;100.00
34241;BME280;20503;50.200;19.508;2022-12-07T18:56:42;101145.06;;;1.70;100.00
34241;BME280;20503;50.200;19.508;2022-12-07T19:01:52;101139.24;;;1.75;100.00
34241;BME280;20503;50.200;19.508;2022-12-07T19:07:01;101150.74;;;1.77;100.00
34241;BME280;20503;50.200;19.508;2022-12-07T19:12:13;101139.66;;;1.79;100.00
34241;BME280;20503;50.200;19.508;2022-12-07T19:17:22;101149.45;;;1.80;100.00
34241;BME280;20503;50.200;19.508;2022-12-07T19:22:34;101137.82;;;1.80;100.00
34241;BME280;20503;50.200;19.508;2022-12-07T19:27:45;101137.95;;;1.78;100.00
34241;BME280;20503;50.200;19.508;2022-12-07T19:32:55;101144.22;;;1.79;100.00
34241;BME280;20503;50.200;19.508;2022-12-07T19:38:07;101135.95;;;1.80;100.00
34241;BME280;20503;50.200;19.508;2022-12-07T19:43:17;101156.71;;;1.80;100.00
34241;BME280;20503;50.200;19.508;2022-12-07T19:48:27;101154.42;;;1.85;100.00
34241;BME280;20503;50.200;19.508;2022-12-07T19:53:38;101164.51;;;1.83;100.00
34241;BME280;20503;50.200;19.508;2022-12-07T19:58:49;101164.09;;;1.87;100.00
34241;BME280;20503;50.200;19.508;2022-12-07T20:03:59;101162.09;;;1.89;100.00
34241;BME280;20503;50.200;19.508;2022-12-07T20:09:11;101159.27;;;1.91;100.00
34241;BME280;20503;50.200;19.508;2022-12-07T20:14:22;101156.41;;;1.92;100.00
34241;BME280;20503;50.200;19.508;2022-12-07T20:19:34;101151.58;;;1.96;100.00
34241;BME280;20503;50.200;19.508;2022-12-07T20:24:43;101150.45;;;1.98;100.00
34241;BME280;20503;50.200;19.508;2022-12-07T20:29:53;101152.85;;;2.01;100.00
34241;BME280;20503;50.200;19.508;2022-12-07T20:35:05;101167.04;;;2.03;100.00
34241;BME280;20503;50.200;19.508;2022-12-07T20:40:15;101168.74;;;2.04;100.00
34241;BME280;20503;50.200;19.508;2022-12-07T20:45:27;101170.74;;;2.02;100.00
34241;BME280;20503;50.200;19.508;2022-12-07T20:50:37;101177.27;;;2.00;100.00
34241;BME280;20503;50.200;19.508;2022-12-07T20:55:48;101185.09;;;1.93;100.00
34241;BME280;20503;50.200;19.508;2022-12-07T21:01:02;101183.11;;;1.86;100.00
34241;BME280;20503;50.200;19.508;2022-12-07T21:06:15;101191.79;;;1.71;100.00
34241;BME280;20503;50.200;19.508;2022-12-07T21:11:22;101171.91;;;1.53;100.00
34241;BME280;20503;50.200;19.508;2022-12-07T21:16:31;101175.90;;;1.49;100.00
34241;BME280;20503;50.200;19.508;2022-12-07T21:21:42;101171.75;;;1.45;100.00
34241;BME280;20503;50.200;19.508;2022-12-07T21:26:52;101183.99;;;1.49;100.00
34241;BME280;20503;50.200;19.508;2022-12-07T21:32:04;101179.14;;;1.52;100.00
34241;BME280;20503;50.200;19.508;2022-12-07T21:37:13;101176.45;;;1.62;100.00
34241;BME280;20503;50.200;19.508;2022-12-07T21:42:25;101171.05;;;1.62;100.00
34241;BME280;20503;50.200;19.508;2022-12-07T21:47:35;101178.02;;;1.64;100.00
34241;BME280;20503;50.200;19.508;2022-12-07T21:52:46;101183.70;;;1.61;100.00
34241;BME280;20503;50.200;19.508;2022-12-07T21:57:57;101182.99;;;1.69;100.00
34241;BME280;20503;50.200;19.508;2022-12-07T22:03:11;101180.00;;;1.72;100.00
34241;BME280;20503;50.200;19.508;2022-12-07T22:08:18;101188.80;;;1.74;100.00
34241;BME280;20503;50.200;19.508;2022-12-07T22:13:30;101188.21;;;1.79;100.00
34241;BME280;20503;50.200;19.508;2022-12-07T22:18:43;101182.28;;;1.76;100.00
34241;BME280;20503;50.200;19.508;2022-12-07T22:23:51;101193.36;;;1.83;100.00
34241;BME280;20503;50.200;19.508;2022-12-07T22:29:01;101199.75;;;1.82;100.00
34241;BME280;20503;50.200;19.508;2022-12-07T22:34:14;101184.40;;;1.82;100.00
34241;BME280;20503;50.200;19.508;2022-12-07T22:39:23;101193.07;;;1.76;100.00
34241;BME280;20503;50.200;19.508;2022-12-07T22:44:34;101191.09;;;1.69;100.00
34241;BME280;20503;50.200;19.508;2022-12-07T22:49:44;101186.40;;;1.71;100.00
34241;BME280;20503;50.200;19.508;2022-12-07T22:54:57;101196.61;;;1.77;100.00
34241;BME280;20503;50.200;19.508;2022-12-07T23:00:09;101199.75;;;1.82;100.00
34241;BME280;20503;50.200;19.508;2022-12-07T23:05:18;101190.79;;;1.81;100.00
34241;BME280;20503;50.200;19.508;2022-12-07T23:10:28;101197.59;;;1.85;100.00
34241;BME280;20503;50.200;19.508;2022-12-07T23:15:40;101197.48;;;1.86;100.00
34241;BME280;20503;50.200;19.508;2022-12-07T23:20:49;101187.96;;;1.83;100.00
34241;BME280;20503;50.200;19.508;2022-12-07T23:26:07;101184.11;;;1.85;100.00
34241;BME280;20503;50.200;19.508;2022-12-07T23:31:13;101187.10;;;1.82;100.00
34241;BME280;20503;50.200;19.508;2022-12-07T23:36:23;101188.21;;;1.79;100.00
34241;BME280;20503;50.200;19.508;2022-12-07T23:41:32;101180.87;;;1.82;100.00
34241;BME280;20503;50.200;19.508;2022-12-07T23:46:43;101196.77;;;1.84;100.00
34241;BME280;20503;50.200;19.508;2022-12-07T23:51:53;101192.20;;;1.85;100.00
34241;BME280;20503;50.200;19.508;2022-12-07T23:57:05;101190.38;;;1.85;100.00
